Hauptseite
METAR-TAF:

METAR-TAF

Flughäfen :

Militärflugplatz Leeuwarden

Leeuwarden, Niederlande

Breite: 53-13N, Länge: 005-46E, Höhe: 1 m

Beobachtung

Neuester Wetterbericht von vor 13 Minuten, um 20:55 UTC
Wind 4 kt aus Südwest
Temperatur 1°C
Luftfeuchtigkeit 86%
Luftdruck 1019 hPa
Sichtweite 10 km oder mehr

METAR: EHLW 032055Z AUTO 22004KT 9999 NCD 01/M01 Q1019 BLU

Zeit: 23:08 (21:08 UTC)

Prognose

Neuester Wetterbericht von vor 4 Stunden und 30 Minuten, um 16:38 UTC
Gültige Prognose vom 03 um 17 UTC bis 04 um 05 UTC
Wind 8 kt aus West/Nordwest
Sichtweite 10 km oder mehr
Aufgelockert bewölkt in der Höhe von 3000 ft
Übergehend zu
vom 03 um 19 UTC bis 03 um 21 UTC
Wind 5 kt aus Süd/Südwest

TAF: EHLW 031638Z 0317/0405 30008KT 9999 SCT030 BECMG 0319/0321 21005KT

Wetterbeobachtungen und Prognosen von mehr als 4000 Flughäfen (METAR und TAF Bericht).

Die verfügbaren Stationen werden durch gelbe und rote Markierungen auf der Karte dargestellt.

Führen Sie die Maus auf sie, um den Namen der Station zu sehen.

Darauf klicken, um die Beobachtung von Wetterbeobachtungen und Prognosen zu sehen.

Um die Karte zu ändern : klicken Sie auf den grünen Tasten mit einem schwarzen Kreuz Zum Vergrößern, auf den grünen Button mit einem Gedankenstrich zu verkleinern, oder auf die grünen Pfeile für benachbarte Karten.


METAR-TAF: